Temp: 8.2°C   Baro: 1005.7mb
  Wind: 2.9mph   Dir: W (266°)
  Rain: 0.6mm (0.0mm/hr)
  Sun: 0W/m2  Humidity: 94%

Historic data

Bath Spa Weather Station Historical Data
Daily Summary for October 18, 2022 Units:  Both    English   Metric
Daily Weekly Monthly Yearly Custom
  High: Low: Average:
Temperature: 68.9 °F /  20.5 °C 42.4 °F /  5.8 °C 53.6 °F /  12 °C
Dew Point: 58.1 °F /  14.5 °C 40.6 °F /  4.8 °C 48.3 °F /  9.1 °C
Humidity: 96% 61.8% 83%
Wind Speed: 8.9mph /  14.3km/h - 2.8mph /  4.5km/h
Wind Gust: 19mph /  30.6km/h - -
Wind- - ESE
Pressure: 30.37 in /  1028.3 hPa 30.25 in /  1024.3 hPa -
Precipitation: 0.00 in /  0 mm    
Historical Graphs
 
 
Tabular Data for October 18, 2022
Time Temperature Dew Point Pressure Wind Wind Speed Wind Gust Humidity Rainfall Rate (Hourly) solar
00:09 46.5 °F /  8.1 °C 44 °F /  6.7 °C 30.27in /  1024.9hPa Calm     91.2% 0.00in /  0mm 0 W/m2
00:14 46.2 °F /  7.9 °C 44.1 °F /  6.7 °C 30.27in /  1024.9hPa Calm     92% 0.00in /  0mm 0 W/m2
00:19 46 °F /  7.8 °C 43.7 °F /  6.5 °C 30.28in /  1025.3hPa Calm     91.6% 0.00in /  0mm 0 W/m2
00:24 45.9 °F /  7.7 °C 43.3 °F /  6.3 °C 30.28in /  1025.3hPa Calm     91% 0.00in /  0mm 0 W/m2
00:29 45.7 °F /  7.6 °C 43.3 °F /  6.3 °C 30.28in /  1025.3hPa Calm     91.4% 0.00in /  0mm 0 W/m2
00:34 45.6 °F /  7.6 °C 43.4 °F /  6.3 °C 30.28in /  1025.3hPa Calm     92% 0.00in /  0mm 0 W/m2
00:39 45.3 °F /  7.4 °C 43.1 °F /  6.2 °C 30.28in /  1025.3hPa Calm     91.6% 0.00in /  0mm 0 W/m2
00:44 45.3 °F /  7.4 °C 43 °F /  6.1 °C 30.28in /  1025.3hPa Calm     91.5% 0.00in /  0mm 0 W/m2
00:49 45.3 °F /  7.4 °C 43.2 °F /  6.2 °C 30.28in /  1025.3hPa Calm     92% 0.00in /  0mm 0 W/m2
00:54 45.2 °F /  7.3 °C 43.1 °F /  6.2 °C 30.28in /  1025.3hPa Calm     92% 0.00in /  0mm 0 W/m2
00:59 45 °F /  7.2 °C 42.8 °F /  6 °C 30.28in /  1025.3hPa Calm     92% 0.00in /  0mm 0 W/m2
01:04 45 °F /  7.2 °C 42.8 °F /  6 °C 30.28in /  1025.3hPa Calm     92% 0.00in /  0mm 0 W/m2
01:09 45 °F /  7.2 °C 42.8 °F /  6 °C 30.29in /  1025.6hPa Calm     92% 0.00in /  0mm 0 W/m2
01:14 45 °F /  7.2 °C 42.8 °F /  6 °C 30.29in /  1025.6hPa Calm     92% 0.00in /  0mm 0 W/m2
01:19 44.8 °F /  7.1 °C 42.6 °F /  5.9 °C 30.29in /  1025.6hPa Calm     92% 0.00in /  0mm 0 W/m2
01:24 44.8 °F /  7.1 °C 42.6 °F /  5.9 °C 30.28in /  1025.3hPa Calm     92% 0.00in /  0mm 0 W/m2
01:29 44.5 °F /  6.9 °C 42.3 °F /  5.7 °C 30.29in /  1025.6hPa Calm     92% 0.00in /  0mm 0 W/m2
01:34 44.4 °F /  6.9 °C 42.3 °F /  5.7 °C 30.29in /  1025.6hPa Calm     92% 0.00in /  0mm 0 W/m2
01:39 44.2 °F /  6.8 °C 42.1 °F /  5.6 °C 30.29in /  1025.6hPa Calm     92% 0.00in /  0mm 0 W/m2
01:44 44.2 °F /  6.8 °C 42.1 °F /  5.6 °C 30.29in /  1025.6hPa Calm     92% 0.00in /  0mm 0 W/m2
01:49 44.1 °F /  6.7 °C 41.9 °F /  5.5 °C 30.29in /  1025.6hPa Calm     92% 0.00in /  0mm 0 W/m2
01:54 44 °F /  6.7 °C 41.8 °F /  5.4 °C 30.29in /  1025.6hPa Calm     92% 0.00in /  0mm 0 W/m2
01:59 43.9 °F /  6.6 °C 41.7 °F /  5.4 °C 30.29in /  1025.6hPa Calm     92% 0.00in /  0mm 0 W/m2
02:04 43.9 °F /  6.6 °C 41.7 °F /  5.4 °C 30.29in /  1025.6hPa Calm     92% 0.00in /  0mm 0 W/m2
02:09 43.7 °F /  6.5 °C 41.5 °F /  5.3 °C 30.29in /  1025.6hPa Calm     92% 0.00in /  0mm 0 W/m2
02:14 43.5 °F /  6.4 °C 41.4 °F /  5.2 °C 30.29in /  1025.6hPa Calm     92% 0.00in /  0mm 0 W/m2
02:19 43.5 °F /  6.4 °C 41.4 °F /  5.2 °C 30.29in /  1025.6hPa Calm     92% 0.00in /  0mm 0 W/m2
02:24 43.3 °F /  6.3 °C 41.2 °F /  5.1 °C 30.29in /  1025.6hPa Calm     92% 0.00in /  0mm 0 W/m2
02:29 43.3 °F /  6.3 °C 41.2 °F /  5.1 °C 30.29in /  1025.6hPa Calm     92% 0.00in /  0mm 0 W/m2
02:34 43.3 °F /  6.3 °C 41.4 °F /  5.2 °C 30.29in /  1025.6hPa Calm     92.8% 0.00in /  0mm 0 W/m2
02:39 43.2 °F /  6.2 °C 41.4 °F /  5.2 °C 30.29in /  1025.6hPa Calm     93% 0.00in /  0mm 0 W/m2
02:44 43.2 °F /  6.2 °C 41.4 °F /  5.2 °C 30.30in /  1026hPa Calm     93% 0.00in /  0mm 0 W/m2
02:49 43 °F /  6.1 °C 40.9 °F /  4.9 °C 30.30in /  1026hPa Calm     92.2% 0.00in /  0mm 0 W/m2
02:54 43 °F /  6.1 °C 40.9 °F /  4.9 °C 30.30in /  1026hPa Calm     92.2% 0.00in /  0mm 0 W/m2
02:59 43 °F /  6.1 °C 41.2 °F /  5.1 °C 30.30in /  1026hPa Calm     93% 0.00in /  0mm 0 W/m2
03:04 43 °F /  6.1 °C 41.2 °F /  5.1 °C 30.30in /  1026hPa Calm     93% 0.00in /  0mm 0 W/m2
03:09 43 °F /  6.1 °C 41.2 °F /  5.1 °C 30.30in /  1026hPa Calm     93% 0.00in /  0mm 0 W/m2
03:14 43 °F /  6.1 °C 41.2 °F /  5.1 °C 30.30in /  1026hPa Calm     93% 0.00in /  0mm 0 W/m2
03:19 42.9 °F /  6.1 °C 41.1 °F /  5.1 °C 30.30in /  1026hPa Calm     93% 0.00in /  0mm 0 W/m2
03:24 42.8 °F /  6 °C 41 °F /  5 °C 30.30in /  1026hPa Calm     93% 0.00in /  0mm 0 W/m2
03:29 42.6 °F /  5.9 °C 40.8 °F /  4.9 °C 30.30in /  1026hPa Calm     93% 0.00in /  0mm 0 W/m2
03:34 42.6 °F /  5.9 °C 40.8 °F /  4.9 °C 30.30in /  1026hPa Calm     93% 0.00in /  0mm 0 W/m2
03:39 42.4 °F /  5.8 °C 40.6 °F /  4.8 °C 30.30in /  1026hPa Calm     93% 0.00in /  0mm 0 W/m2
03:44 42.6 °F /  5.9 °C 40.8 °F /  4.9 °C 30.30in /  1026hPa Calm     93% 0.00in /  0mm 0 W/m2
03:49 42.6 °F /  5.9 °C 40.8 °F /  4.9 °C 30.31in /  1026.3hPa Calm     93% 0.00in /  0mm 0 W/m2
03:54 42.8 °F /  6 °C 41 °F /  5 °C 30.31in /  1026.3hPa Calm     93% 0.00in /  0mm 0 W/m2
03:59 42.6 °F /  5.9 °C 40.8 °F /  4.9 °C 30.31in /  1026.3hPa WSW 0.4mph /  0.6km/h 2mph /  3.2km/h 93% 0.00in /  0mm 0 W/m2
04:04 42.4 °F /  5.8 °C 40.6 °F /  4.8 °C 30.31in /  1026.3hPa Calm   2mph /  3.2km/h 93% 0.00in /  0mm 0 W/m2
04:09 42.4 °F /  5.8 °C 40.6 °F /  4.8 °C 30.31in /  1026.3hPa Calm     93% 0.00in /  0mm 0 W/m2
04:14 42.6 °F /  5.9 °C 40.8 °F /  4.9 °C 30.31in /  1026.3hPa WSW 0.2mph /  0.3km/h 2mph /  3.2km/h 93% 0.00in /  0mm 0 W/m2
04:19 43 °F /  6.1 °C 41.2 °F /  5.1 °C 30.31in /  1026.3hPa WSW 0.4mph /  0.6km/h 1mph /  1.6km/h 93% 0.00in /  0mm 0 W/m2
04:24 43.2 °F /  6.2 °C 41.4 °F /  5.2 °C 30.31in /  1026.3hPa Calm   1mph /  1.6km/h 93% 0.00in /  0mm 0 W/m2
04:29 43.1 °F /  6.2 °C 41.4 °F /  5.2 °C 30.31in /  1026.3hPa Calm     93.4% 0.00in /  0mm 0 W/m2
04:34 43 °F /  6.1 °C 41.4 °F /  5.2 °C 30.32in /  1026.6hPa Calm     94% 0.00in /  0mm 0 W/m2
04:39 43 °F /  6.1 °C 41.4 °F /  5.2 °C 30.31in /  1026.3hPa Calm     94% 0.00in /  0mm 0 W/m2
04:44 43 °F /  6.1 °C 41.4 °F /  5.2 °C 30.31in /  1026.3hPa Calm     94% 0.00in /  0mm 0 W/m2
04:49 43.1 °F /  6.2 °C 41.5 °F /  5.3 °C 30.32in /  1026.6hPa WSW 0.7mph /  1.1km/h 2mph /  3.2km/h 94% 0.00in /  0mm 0 W/m2
04:54 43.6 °F /  6.4 °C 42 °F /  5.6 °C 30.32in /  1026.6hPa WSW 0.4mph /  0.6km/h 2mph /  3.2km/h 94% 0.00in /  0mm 0 W/m2
04:59 43.9 °F /  6.6 °C 42.3 °F /  5.7 °C 30.32in /  1026.6hPa WSW 1.2mph /  1.9km/h 3mph /  4.8km/h 94% 0.00in /  0mm 0 W/m2
05:04 43.9 °F /  6.6 °C 42.3 °F /  5.7 °C 30.32in /  1026.6hPa SSW 0.2mph /  0.3km/h 3mph /  4.8km/h 94% 0.00in /  0mm 0 W/m2
05:09 44 °F /  6.7 °C 42.3 °F /  5.7 °C 30.32in /  1026.6hPa Calm     94% 0.00in /  0mm 0 W/m2
05:14 43.9 °F /  6.6 °C 42.3 °F /  5.7 °C 30.32in /  1026.6hPa Calm     94% 0.00in /  0mm 0 W/m2
05:19 43.9 °F /  6.6 °C 42.3 °F /  5.7 °C 30.32in /  1026.6hPa Calm     94% 0.00in /  0mm 0 W/m2
05:24 43.5 °F /  6.4 °C 41.9 °F /  5.5 °C 30.32in /  1026.6hPa Calm     94% 0.00in /  0mm 0 W/m2
05:29 43.5 °F /  6.4 °C 41.9 °F /  5.5 °C 30.32in /  1026.6hPa Calm     94% 0.00in /  0mm 0 W/m2
05:34 43.5 °F /  6.4 °C 41.9 °F /  5.5 °C 30.32in /  1026.6hPa Calm     94% 0.00in /  0mm 0 W/m2
05:39 43.6 °F /  6.4 °C 42 °F /  5.6 °C 30.32in /  1026.6hPa Calm     94% 0.00in /  0mm 0 W/m2
05:44 43.5 °F /  6.4 °C 41.9 °F /  5.5 °C 30.32in /  1026.6hPa Calm     94% 0.00in /  0mm 0 W/m2
05:49 43.5 °F /  6.4 °C 41.9 °F /  5.5 °C 30.32in /  1026.6hPa SSW 0.8mph /  1.3km/h 2mph /  3.2km/h 94% 0.00in /  0mm 0 W/m2
05:54 43.7 °F /  6.5 °C 42.1 °F /  5.6 °C 30.32in /  1026.6hPa SSW 0.2mph /  0.3km/h 2mph /  3.2km/h 94% 0.00in /  0mm 0 W/m2
05:59 43.9 °F /  6.6 °C 42.3 °F /  5.7 °C 30.33in /  1027hPa Calm   1mph /  1.6km/h 94% 0.00in /  0mm 0 W/m2
06:04 43.9 °F /  6.6 °C 42.3 °F /  5.7 °C 30.33in /  1027hPa Calm   1mph /  1.6km/h 94% 0.00in /  0mm 0 W/m2
06:09 43.9 °F /  6.6 °C 42.3 °F /  5.7 °C 30.33in /  1027hPa Calm     94% 0.00in /  0mm 0 W/m2
06:14 43.5 °F /  6.4 °C 41.9 °F /  5.5 °C 30.33in /  1027hPa Calm     94% 0.00in /  0mm 0 W/m2
06:19 43.4 °F /  6.3 °C 41.8 °F /  5.4 °C 30.33in /  1027hPa Calm     94% 0.00in /  0mm 0 W/m2
06:24 43.3 °F /  6.3 °C 41.7 °F /  5.4 °C 30.33in /  1027hPa Calm     94% 0.00in /  0mm 0 W/m2
06:29 43.3 °F /  6.3 °C 41.7 °F /  5.4 °C 30.33in /  1027hPa South 0.5mph /  0.8km/h 3mph /  4.8km/h 94% 0.00in /  0mm 0 W/m2
06:34 43.3 °F /  6.3 °C 41.7 °F /  5.4 °C 30.33in /  1027hPa SE 0.4mph /  0.6km/h 3mph /  4.8km/h 94% 0.00in /  0mm 0 W/m2
06:39 43.4 °F /  6.3 °C 41.8 °F /  5.4 °C 30.33in /  1027hPa Calm   1mph /  1.6km/h 94% 0.00in /  0mm 0 W/m2
06:44 43.5 °F /  6.4 °C 41.9 °F /  5.5 °C 30.33in /  1027hPa SE 0.4mph /  0.6km/h 3mph /  4.8km/h 94% 0.00in /  0mm 0 W/m2
06:49 43.4 °F /  6.3 °C 41.8 °F /  5.4 °C 30.33in /  1027hPa Calm   1mph /  1.6km/h 94% 0.00in /  0mm 0 W/m2
06:54 44.1 °F /  6.7 °C 42.7 °F /  5.9 °C 30.33in /  1027hPa SE 0.2mph /  0.3km/h 2mph /  3.2km/h 94.6% 0.00in /  0mm 0 W/m2
06:59 45.1 °F /  7.3 °C 43.9 °F /  6.6 °C 30.33in /  1027hPa SE 0.8mph /  1.3km/h 2mph /  3.2km/h 95% 0.00in /  0mm 0 W/m2
07:04 45.1 °F /  7.3 °C 43.9 °F /  6.6 °C 30.33in /  1027hPa SE 1.2mph /  1.9km/h 3mph /  4.8km/h 95% 0.00in /  0mm 0 W/m2
07:09 45.2 °F /  7.3 °C 43.9 °F /  6.6 °C 30.33in /  1027hPa SE 0.7mph /  1.1km/h 3mph /  4.8km/h 95% 0.00in /  0mm 0 W/m2
07:14 44.7 °F /  7.1 °C 43.4 °F /  6.3 °C 30.33in /  1027hPa SE 1.1mph /  1.8km/h 3mph /  4.8km/h 95% 0.00in /  0mm 0 W/m2
07:19 44.4 °F /  6.9 °C 43.1 °F /  6.2 °C 30.33in /  1027hPa SE 0.9mph /  1.4km/h 3mph /  4.8km/h 94.8% 0.00in /  0mm 0 W/m2
07:24 44.4 °F /  6.9 °C 43.2 °F /  6.2 °C 30.33in /  1027hPa SE 2.1mph /  3.4km/h 4mph /  6.4km/h 95% 0.00in /  0mm 0 W/m2
07:29 44.6 °F /  7 °C 43.3 °F /  6.3 °C 30.33in /  1027hPa SE 1.3mph /  2.1km/h 4mph /  6.4km/h 95% 0.00in /  0mm 0 W/m2
07:34 44.8 °F /  7.1 °C 43.5 °F /  6.4 °C 30.33in /  1027hPa SE 0.6mph /  1km/h 2mph /  3.2km/h 95% 0.00in /  0mm 0 W/m2
07:39 45.1 °F /  7.3 °C 43.9 °F /  6.6 °C 30.33in /  1027hPa SE 0.2mph /  0.3km/h 1mph /  1.6km/h 95% 0.00in /  0mm 0 W/m2
07:44 45.2 °F /  7.3 °C 43.9 °F /  6.6 °C 30.33in /  1027hPa SE 1.2mph /  1.9km/h 3mph /  4.8km/h 95% 0.00in /  0mm 5 W/m2
07:49 44.9 °F /  7.2 °C 43.6 °F /  6.4 °C 30.34in /  1027.3hPa SE 1.3mph /  2.1km/h 3mph /  4.8km/h 95% 0.00in /  0mm 7 W/m2
07:54 44.9 °F /  7.2 °C 43.6 °F /  6.4 °C 30.34in /  1027.3hPa SE 1.7mph /  2.7km/h 3mph /  4.8km/h 95% 0.00in /  0mm 9 W/m2
07:59 44.8 °F /  7.1 °C 43.5 °F /  6.4 °C 30.34in /  1027.3hPa SE 1.6mph /  2.6km/h 4mph /  6.4km/h 95% 0.00in /  0mm 14 W/m2
08:04 44.8 °F /  7.1 °C 43.5 °F /  6.4 °C 30.34in /  1027.3hPa SE 1.1mph /  1.8km/h 3mph /  4.8km/h 95% 0.00in /  0mm 16 W/m2
08:09 44.8 °F /  7.1 °C 43.5 °F /  6.4 °C 30.34in /  1027.3hPa ESE 2.2mph /  3.5km/h 4mph /  6.4km/h 95% 0.00in /  0mm 21 W/m2
08:14 44.7 °F /  7.1 °C 43.4 °F /  6.3 °C 30.34in /  1027.3hPa ESE 1.2mph /  1.9km/h 3mph /  4.8km/h 95% 0.00in /  0mm 26 W/m2
08:19 44.4 °F /  6.9 °C 43.2 °F /  6.2 °C 30.34in /  1027.3hPa ESE 1.4mph /  2.3km/h 3mph /  4.8km/h 95% 0.00in /  0mm 35 W/m2
08:24 44.2 °F /  6.8 °C 43 °F /  6.1 °C 30.34in /  1027.3hPa ESE 2.2mph /  3.5km/h 4mph /  6.4km/h 95% 0.00in /  0mm 39 W/m2
08:29 44.1 °F /  6.7 °C 42.8 °F /  6 °C 30.34in /  1027.3hPa SE 1.4mph /  2.3km/h 4mph /  6.4km/h 95% 0.00in /  0mm 46 W/m2
08:34 44.1 °F /  6.7 °C 42.8 °F /  6 °C 30.35in /  1027.7hPa SE 1.4mph /  2.3km/h 4mph /  6.4km/h 95% 0.00in /  0mm 60 W/m2
08:39 44.2 °F /  6.8 °C 43 °F /  6.1 °C 30.35in /  1027.7hPa ESE 2.1mph /  3.4km/h 4mph /  6.4km/h 95% 0.00in /  0mm 56 W/m2
08:44 44.2 °F /  6.8 °C 43 °F /  6.1 °C 30.35in /  1027.7hPa ESE 3.3mph /  5.3km/h 6mph /  9.7km/h 95% 0.00in /  0mm 60 W/m2
08:49 44.1 °F /  6.7 °C 42.8 °F /  6 °C 30.35in /  1027.7hPa ESE 2.3mph /  3.7km/h 4mph /  6.4km/h 95% 0.00in /  0mm 69 W/m2
08:54 43.9 °F /  6.6 °C 42.6 °F /  5.9 °C 30.35in /  1027.7hPa SE 2.5mph /  4km/h 5mph /  8km/h 95% 0.00in /  0mm 63 W/m2
08:59 43.8 °F /  6.6 °C 42.5 °F /  5.8 °C 30.36in /  1028hPa SSE 2.4mph /  3.9km/h 5mph /  8km/h 95% 0.00in /  0mm 83 W/m2
09:04 43.6 °F /  6.4 °C 42.3 °F /  5.7 °C 30.36in /  1028hPa SSE 2.5mph /  4km/h 4mph /  6.4km/h 95% 0.00in /  0mm 95 W/m2
09:09 43.7 °F /  6.5 °C 42.4 °F /  5.8 °C 30.36in /  1028hPa SSE 2.4mph /  3.9km/h 4mph /  6.4km/h 95% 0.00in /  0mm 100 W/m2
09:14 43.9 °F /  6.6 °C 42.6 °F /  5.9 °C 30.36in /  1028hPa SE 1.9mph /  3.1km/h 5mph /  8km/h 95% 0.00in /  0mm 104 W/m2
09:19 44.1 °F /  6.7 °C 42.8 °F /  6 °C 30.36in /  1028hPa SE 1.7mph /  2.7km/h 4mph /  6.4km/h 95% 0.00in /  0mm 113 W/m2
09:24 44.2 °F /  6.8 °C 43 °F /  6.1 °C 30.36in /  1028hPa SE 2.1mph /  3.4km/h 4mph /  6.4km/h 95% 0.00in /  0mm 132 W/m2
09:29 44.4 °F /  6.9 °C 43.2 °F /  6.2 °C 30.36in /  1028hPa SE 1.5mph /  2.4km/h 3mph /  4.8km/h 95% 0.00in /  0mm 134 W/m2
09:34 44.5 °F /  6.9 °C 43.3 °F /  6.3 °C 30.36in /  1028hPa SE 1.8mph /  2.9km/h 4mph /  6.4km/h 95% 0.00in /  0mm 165 W/m2
09:39 44.8 °F /  7.1 °C 43.5 °F /  6.4 °C 30.36in /  1028hPa SE 2mph /  3.2km/h 4mph /  6.4km/h 95% 0.00in /  0mm 176 W/m2
09:44 45 °F /  7.2 °C 43.8 °F /  6.6 °C 30.36in /  1028hPa SSE 2.8mph /  4.5km/h 5mph /  8km/h 95.4% 0.00in /  0mm 176 W/m2
09:49 45.4 °F /  7.4 °C 44.2 °F /  6.8 °C 30.37in /  1028.3hPa SSE 2.1mph /  3.4km/h 5mph /  8km/h 95.4% 0.00in /  0mm 181 W/m2
09:54 45.8 °F /  7.7 °C 44.6 °F /  7 °C 30.37in /  1028.3hPa SE 2.4mph /  3.9km/h 5mph /  8km/h 95.6% 0.00in /  0mm 178 W/m2
09:59 46.1 °F /  7.8 °C 44.7 °F /  7.1 °C 30.37in /  1028.3hPa SE 2.8mph /  4.5km/h 4mph /  6.4km/h 95.2% 0.00in /  0mm 192 W/m2
10:04 46.7 °F /  8.2 °C 45.5 °F /  7.5 °C 30.36in /  1028hPa SSE 2.4mph /  3.9km/h 4mph /  6.4km/h 95.8% 0.00in /  0mm 204 W/m2
10:09 47.1 °F /  8.4 °C 45.9 °F /  7.7 °C 30.36in /  1028hPa SSE 2.4mph /  3.9km/h 4mph /  6.4km/h 95.8% 0.00in /  0mm 216 W/m2
10:14 47.6 °F /  8.7 °C 46.5 °F /  8.1 °C 30.36in /  1028hPa SE 1.3mph /  2.1km/h 4mph /  6.4km/h 96% 0.00in /  0mm 227 W/m2
10:19 47.7 °F /  8.7 °C 46.4 °F /  8 °C 30.36in /  1028hPa SSE 2.8mph /  4.5km/h 5mph /  8km/h 95.6% 0.00in /  0mm 241 W/m2
10:24 48 °F /  8.9 °C 46.8 °F /  8.2 °C 30.36in /  1028hPa SSE 1.9mph /  3.1km/h 4mph /  6.4km/h 95.6% 0.00in /  0mm 251 W/m2
10:29 48.7 °F /  9.3 °C 47.5 °F /  8.6 °C 30.36in /  1028hPa SSE 2.5mph /  4km/h 4mph /  6.4km/h 95.6% 0.00in /  0mm 264 W/m2
10:34 49.2 °F /  9.6 °C 47.9 °F /  8.8 °C 30.36in /  1028hPa SSE 1.7mph /  2.7km/h 4mph /  6.4km/h 95.4% 0.00in /  0mm 274 W/m2
10:39 49.7 °F /  9.8 °C 48.2 °F /  9 °C 30.36in /  1028hPa SSE 2.9mph /  4.7km/h 5mph /  8km/h 95% 0.00in /  0mm 285 W/m2
10:44 50.4 °F /  10.2 °C 48.9 °F /  9.4 °C 30.36in /  1028hPa SSE 2.4mph /  3.9km/h 4mph /  6.4km/h 95% 0.00in /  0mm 294 W/m2
10:49 51.7 °F /  10.9 °C 50.2 °F /  10.1 °C 30.36in /  1028hPa ESE 4mph /  6.4km/h 7mph /  11.3km/h 95% 0.00in /  0mm 304 W/m2
10:54 52.5 °F /  11.4 °C 51.1 °F /  10.6 °C 30.36in /  1028hPa SE 2.5mph /  4km/h 7mph /  11.3km/h 95% 0.00in /  0mm 315 W/m2
10:59 52.8 °F /  11.6 °C 51.3 °F /  10.7 °C 30.36in /  1028hPa SSE 2.5mph /  4km/h 7mph /  11.3km/h 95% 0.00in /  0mm 323 W/m2
11:04 52.3 °F /  11.3 °C 50.7 °F /  10.4 °C 30.36in /  1028hPa SSE 2.8mph /  4.5km/h 7mph /  11.3km/h 94% 0.00in /  0mm 332 W/m2
11:09 52.5 °F /  11.4 °C 50.9 °F /  10.5 °C 30.36in /  1028hPa SE 2.8mph /  4.5km/h 7mph /  11.3km/h 94% 0.00in /  0mm 339 W/m2
11:14 53.1 °F /  11.7 °C 51.1 °F /  10.6 °C 30.37in /  1028.3hPa SE 4.4mph /  7.1km/h 7mph /  11.3km/h 93.2% 0.00in /  0mm 348 W/m2
11:19 53.4 °F /  11.9 °C 51.2 °F /  10.7 °C 30.36in /  1028hPa SE 2mph /  3.2km/h 6mph /  9.7km/h 92.4% 0.00in /  0mm 362 W/m2
11:24 54.5 °F /  12.5 °C 52.1 °F /  11.2 °C 30.36in /  1028hPa ESE 2.4mph /  3.9km/h 6mph /  9.7km/h 92% 0.00in /  0mm 367 W/m2
11:29 55.7 °F /  13.2 °C 53.2 °F /  11.8 °C 30.36in /  1028hPa ESE 3mph /  4.8km/h 7mph /  11.3km/h 91.2% 0.00in /  0mm 378 W/m2
11:34 56.8 °F /  13.8 °C 54 °F /  12.2 °C 30.36in /  1028hPa ESE 2.7mph /  4.3km/h 7mph /  11.3km/h 90% 0.00in /  0mm 387 W/m2
11:39 58 °F /  14.4 °C 54.6 °F /  12.6 °C 30.36in /  1028hPa East 4.9mph /  7.9km/h 10mph /  16.1km/h 88.5% 0.00in /  0mm 390 W/m2
11:44 58.5 °F /  14.7 °C 54.5 °F /  12.5 °C 30.36in /  1028hPa ESE 2.9mph /  4.7km/h 9mph /  14.5km/h 86.2% 0.00in /  0mm 396 W/m2
11:49 59 °F /  15 °C 54.2 °F /  12.3 °C 30.36in /  1028hPa ESE 4.4mph /  7.1km/h 8mph /  12.9km/h 84.2% 0.00in /  0mm 403 W/m2
11:54 59.6 °F /  15.3 °C 54.1 °F /  12.3 °C 30.36in /  1028hPa East 3.9mph /  6.3km/h 10mph /  16.1km/h 82.2% 0.00in /  0mm 408 W/m2
11:59 60.3 °F /  15.7 °C 54.3 °F /  12.4 °C 30.36in /  1028hPa ENE 4.5mph /  7.2km/h 10mph /  16.1km/h 80.4% 0.00in /  0mm 420 W/m2
12:04 61.1 °F /  16.2 °C 54.6 °F /  12.6 °C 30.36in /  1028hPa East 3.3mph /  5.3km/h 11mph /  17.7km/h 79% 0.00in /  0mm 413 W/m2
12:09 61.7 °F /  16.5 °C 54.5 °F /  12.5 °C 30.36in /  1028hPa ENE 3.3mph /  5.3km/h 8mph /  12.9km/h 77.2% 0.00in /  0mm 415 W/m2
12:14 62.2 °F /  16.8 °C 54.5 °F /  12.5 °C 30.36in /  1028hPa ENE 3.8mph /  6.1km/h 11mph /  17.7km/h 76% 0.00in /  0mm 413 W/m2
12:19 62.8 °F /  17.1 °C 54.6 °F /  12.6 °C 30.36in /  1028hPa East 2.6mph /  4.2km/h 7mph /  11.3km/h 74.8% 0.00in /  0mm 411 W/m2
12:24 63.3 °F /  17.4 °C 54.8 °F /  12.7 °C 30.37in /  1028.3hPa ENE 2.5mph /  4km/h 7mph /  11.3km/h 74% 0.00in /  0mm 422 W/m2
12:29 63.9 °F /  17.7 °C 55.1 °F /  12.8 °C 30.36in /  1028hPa East 2.7mph /  4.3km/h 7mph /  11.3km/h 73.2% 0.00in /  0mm 436 W/m2
12:34 64 °F /  17.8 °C 55 °F /  12.8 °C 30.36in /  1028hPa NE 2.9mph /  4.7km/h 10mph /  16.1km/h 72.6% 0.00in /  0mm 418 W/m2
12:39 63.9 °F /  17.7 °C 54.7 °F /  12.6 °C 30.36in /  1028hPa East 2.9mph /  4.7km/h 10mph /  16.1km/h 72% 0.00in /  0mm 439 W/m2
12:44 63.9 °F /  17.7 °C 55.1 °F /  12.8 °C 30.36in /  1028hPa East 3.9mph /  6.3km/h 8mph /  12.9km/h 73% 0.00in /  0mm 455 W/m2
12:49 64.4 °F /  18 °C 55.4 °F /  13 °C 30.35in /  1027.7hPa East 4.4mph /  7.1km/h 8mph /  12.9km/h 72.4% 0.00in /  0mm 457 W/m2
12:54 64.8 °F /  18.2 °C 55.4 °F /  13 °C 30.35in /  1027.7hPa ENE 5.1mph /  8.2km/h 10mph /  16.1km/h 71.6% 0.00in /  0mm 457 W/m2
12:59 64.9 °F /  18.3 °C 55.7 °F /  13.2 °C 30.35in /  1027.7hPa ENE 2.5mph /  4km/h 7mph /  11.3km/h 71.6% 0.00in /  0mm 457 W/m2
13:04 65.3 °F /  18.5 °C 55.7 °F /  13.2 °C 30.34in /  1027.3hPa NE 3.6mph /  5.8km/h 9mph /  14.5km/h 71.2% 0.00in /  0mm 457 W/m2
13:09 65.7 °F /  18.7 °C 55.9 °F /  13.3 °C 30.34in /  1027.3hPa NE 1.5mph /  2.4km/h 8mph /  12.9km/h 70.8% 0.00in /  0mm 459 W/m2
13:14 65.7 °F /  18.7 °C 55.8 °F /  13.2 °C 30.34in /  1027.3hPa ENE 4.1mph /  6.6km/h 8mph /  12.9km/h 70.4% 0.00in /  0mm 457 W/m2
13:19 66.6 °F /  19.2 °C 56.6 °F /  13.7 °C 30.34in /  1027.3hPa ENE 3.3mph /  5.3km/h 8mph /  12.9km/h 70.2% 0.00in /  0mm 448 W/m2
13:24 66.6 °F /  19.2 °C 56.1 °F /  13.4 °C 30.34in /  1027.3hPa NE 3.1mph /  5km/h 9mph /  14.5km/h 69% 0.00in /  0mm 446 W/m2
13:29 66.8 °F /  19.3 °C 56.4 °F /  13.6 °C 30.34in /  1027.3hPa NE 2mph /  3.2km/h 10mph /  16.1km/h 69% 0.00in /  0mm 446 W/m2
13:34 67.2 °F /  19.6 °C 56.3 °F /  13.5 °C 30.33in /  1027hPa ESE 3.2mph /  5.1km/h 10mph /  16.1km/h 68.3% 0.00in /  0mm 446 W/m2
13:39 67.4 °F /  19.7 °C 56.5 °F /  13.6 °C 30.33in /  1027hPa NE 4.1mph /  6.6km/h 10mph /  16.1km/h 68% 0.00in /  0mm 450 W/m2
13:44 67.8 °F /  19.9 °C 56.9 °F /  13.8 °C 30.33in /  1027hPa East 5.1mph /  8.2km/h 10mph /  16.1km/h 68.2% 0.00in /  0mm 427 W/m2
13:49 68.4 °F /  20.2 °C 58.1 °F /  14.5 °C 30.33in /  1027hPa ENE 3.6mph /  5.8km/h 9mph /  14.5km/h 69.6% 0.00in /  0mm 425 W/m2
13:54 68.5 °F /  20.3 °C 57.6 °F /  14.2 °C 30.32in /  1026.6hPa East 3.3mph /  5.3km/h 9mph /  14.5km/h 68.2% 0.00in /  0mm 455 W/m2
13:59 68.7 °F /  20.4 °C 57.7 °F /  14.3 °C 30.32in /  1026.6hPa ESE 2.3mph /  3.7km/h 7mph /  11.3km/h 68% 0.00in /  0mm 455 W/m2
14:04 68.9 °F /  20.5 °C 57.9 °F /  14.4 °C 30.32in /  1026.6hPa East 4.5mph /  7.2km/h 13mph /  20.9km/h 67.8% 0.00in /  0mm 396 W/m2
14:09 68 °F /  20 °C 56.8 °F /  13.8 °C 30.32in /  1026.6hPa East 4mph /  6.4km/h 9mph /  14.5km/h 67.2% 0.00in /  0mm 387 W/m2
14:14 67.6 °F /  19.8 °C 56.6 °F /  13.7 °C 30.32in /  1026.6hPa East 4.5mph /  7.2km/h 10mph /  16.1km/h 68% 0.00in /  0mm 394 W/m2
14:19 67.8 °F /  19.9 °C 56 °F /  13.3 °C 30.32in /  1026.6hPa East 5.5mph /  8.9km/h 15mph /  24.1km/h 65.8% 0.00in /  0mm 431 W/m2
14:24 68.4 °F /  20.2 °C 55.6 °F /  13.1 °C 30.32in /  1026.6hPa East 8.2mph /  13.2km/h 14mph /  22.5km/h 63.6% 0.00in /  0mm 431 W/m2
14:29 68.2 °F /  20.1 °C 55.2 °F /  12.9 °C 30.32in /  1026.6hPa East 5.1mph /  8.2km/h 13mph /  20.9km/h 63.2% 0.00in /  0mm 390 W/m2
14:34 67.4 °F /  19.7 °C 55.1 °F /  12.8 °C 30.32in /  1026.6hPa ENE 4.4mph /  7.1km/h 11mph /  17.7km/h 64.8% 0.00in /  0mm 436 W/m2
14:39 67.7 °F /  19.8 °C 55.8 °F /  13.2 °C 30.31in /  1026.3hPa East 2.9mph /  4.7km/h 11mph /  17.7km/h 65.6% 0.00in /  0mm 454 W/m2
14:44 68.5 °F /  20.3 °C 55.8 °F /  13.2 °C 30.31in /  1026.3hPa East 5.2mph /  8.4km/h 10mph /  16.1km/h 63.8% 0.00in /  0mm 441 W/m2
14:49 68.4 °F /  20.2 °C 55.2 °F /  12.9 °C 30.31in /  1026.3hPa ESE 4.5mph /  7.2km/h 10mph /  16.1km/h 63% 0.00in /  0mm 469 W/m2
14:54 67.8 °F /  19.9 °C 54.8 °F /  12.7 °C 30.32in /  1026.6hPa ESE 5.3mph /  8.5km/h 14mph /  22.5km/h 63.2% 0.00in /  0mm 454 W/m2
14:59 67 °F /  19.4 °C 54.5 °F /  12.5 °C 30.32in /  1026.6hPa SE 4.3mph /  6.9km/h 11mph /  17.7km/h 64% 0.00in /  0mm 385 W/m2
15:04 66.7 °F /  19.3 °C 54.7 °F /  12.6 °C 30.32in /  1026.6hPa ESE 4.5mph /  7.2km/h 11mph /  17.7km/h 65% 0.00in /  0mm 341 W/m2
15:09 67.3 °F /  19.6 °C 54.8 °F /  12.7 °C 30.31in /  1026.3hPa East 6mph /  9.7km/h 11mph /  17.7km/h 64.4% 0.00in /  0mm 272 W/m2
15:14 67.5 °F /  19.7 °C 54.8 °F /  12.7 °C 30.31in /  1026.3hPa ESE 7mph /  11.3km/h 12mph /  19.3km/h 63.6% 0.00in /  0mm 401 W/m2
15:19 67.6 °F /  19.8 °C 54.6 °F /  12.6 °C 30.31in /  1026.3hPa East 5.6mph /  9km/h 13mph /  20.9km/h 62.8% 0.00in /  0mm 406 W/m2
15:24 67.7 °F /  19.8 °C 54.9 °F /  12.7 °C 30.31in /  1026.3hPa East 3.9mph /  6.3km/h 9mph /  14.5km/h 63.4% 0.00in /  0mm 380 W/m2
15:29 68.4 °F /  20.2 °C 55.6 °F /  13.1 °C 30.31in /  1026.3hPa East 4.2mph /  6.8km/h 9mph /  14.5km/h 63.6% 0.00in /  0mm 380 W/m2
15:34 68.6 °F /  20.3 °C 55 °F /  12.8 °C 30.31in /  1026.3hPa East 4.6mph /  7.4km/h 10mph /  16.1km/h 61.8% 0.00in /  0mm 128 W/m2
15:39 67.8 °F /  19.9 °C 54.5 °F /  12.5 °C 30.31in /  1026.3hPa ENE 3.5mph /  5.6km/h 9mph /  14.5km/h 62.4% 0.00in /  0mm 91 W/m2
15:44 66.8 °F /  19.3 °C 54.3 °F /  12.4 °C 30.30in /  1026hPa SE 3.9mph /  6.3km/h 9mph /  14.5km/h 64.2% 0.00in /  0mm 162 W/m2
15:49 66.5 °F /  19.2 °C 54.2 °F /  12.3 °C 30.30in /  1026hPa East 5mph /  8km/h 12mph /  19.3km/h 64.4% 0.00in /  0mm 243 W/m2
15:54 66.1 °F /  18.9 °C 54.1 °F /  12.3 °C 30.31in /  1026.3hPa East 4.9mph /  7.9km/h 11mph /  17.7km/h 65.2% 0.00in /  0mm 253 W/m2
15:59 66.4 °F /  19.1 °C 54.4 °F /  12.4 °C 30.31in /  1026.3hPa East 4.3mph /  6.9km/h 9mph /  14.5km/h 65.2% 0.00in /  0mm 137 W/m2
16:04 66.4 °F /  19.1 °C 54.3 °F /  12.4 °C 30.31in /  1026.3hPa East 3.7mph /  6km/h 10mph /  16.1km/h 65% 0.00in /  0mm 125 W/m2
16:09 65.9 °F /  18.8 °C 53.9 °F /  12.2 °C 30.31in /  1026.3hPa East 6.6mph /  10.6km/h 13mph /  20.9km/h 65% 0.00in /  0mm 156 W/m2
16:14 65.7 °F /  18.7 °C 54 °F /  12.2 °C 30.31in /  1026.3hPa East 4.5mph /  7.2km/h 10mph /  16.1km/h 66% 0.00in /  0mm 171 W/m2
16:19 65.5 °F /  18.6 °C 53.8 °F /  12.1 °C 30.31in /  1026.3hPa ESE 4.7mph /  7.6km/h 10mph /  16.1km/h 66% 0.00in /  0mm 141 W/m2
16:24 65.1 °F /  18.4 °C 53.9 °F /  12.2 °C 30.31in /  1026.3hPa ESE 4mph /  6.4km/h 8mph /  12.9km/h 66.8% 0.00in /  0mm 137 W/m2
16:29 64.8 °F /  18.2 °C 53.7 °F /  12.1 °C 30.31in /  1026.3hPa East 3.6mph /  5.8km/h 8mph /  12.9km/h 67.2% 0.00in /  0mm 100 W/m2
16:34 64.3 °F /  17.9 °C 53.5 °F /  11.9 °C 30.31in /  1026.3hPa East 4.8mph /  7.7km/h 13mph /  20.9km/h 68% 0.00in /  0mm 91 W/m2
16:39 63.9 °F /  17.7 °C 53.4 °F /  11.9 °C 30.31in /  1026.3hPa East 4.5mph /  7.2km/h 10mph /  16.1km/h 68.8% 0.00in /  0mm 88 W/m2
16:44 63.7 °F /  17.6 °C 53.8 °F /  12.1 °C 30.31in /  1026.3hPa ENE 3.6mph /  5.8km/h 13mph /  20.9km/h 70% 0.00in /  0mm 86 W/m2
16:49 63.7 °F /  17.6 °C 53.8 °F /  12.1 °C 30.31in /  1026.3hPa East 3.5mph /  5.6km/h 10mph /  16.1km/h 70% 0.00in /  0mm 83 W/m2
16:54 63.4 °F /  17.4 °C 53.7 °F /  12.1 °C 30.31in /  1026.3hPa East 7mph /  11.3km/h 11mph /  17.7km/h 70.4% 0.00in /  0mm 77 W/m2
16:59 63.1 °F /  17.3 °C 53.6 °F /  12 °C 30.30in /  1026hPa ENE 4.7mph /  7.6km/h 10mph /  16.1km/h 71% 0.00in /  0mm 72 W/m2
17:04 62.9 °F /  17.2 °C 53.6 °F /  12 °C 30.30in /  1026hPa East 6.2mph /  10km/h 10mph /  16.1km/h 71.6% 0.00in /  0mm 65 W/m2
17:09 62.6 °F /  17 °C 53.4 °F /  11.9 °C 30.30in /  1026hPa ENE 4.3mph /  6.9km/h 12mph /  19.3km/h 72% 0.00in /  0mm 56 W/m2
17:12 62.3 °F /  16.8 °C 53.1 °F /  11.7 °C 30.30in /  1026hPa ESE 3.3mph /  5.3km/h 9mph /  14.5km/h 72% 0.00in /  0mm 47 W/m2
17:19 62.1 °F /  16.7 °C 53.1 °F /  11.7 °C 30.30in /  1026hPa East 4mph /  6.4km/h 9mph /  14.5km/h 72.7% 0.00in /  0mm 39 W/m2
17:24 61.9 °F /  16.6 °C 52.9 °F /  11.6 °C 30.30in /  1026hPa East 3.2mph /  5.1km/h 11mph /  17.7km/h 72.4% 0.00in /  0mm 35 W/m2
17:29 61.6 °F /  16.4 °C 52.8 °F /  11.6 °C 30.30in /  1026hPa East 2.4mph /  3.9km/h 9mph /  14.5km/h 73% 0.00in /  0mm 30 W/m2
17:34 61.4 °F /  16.3 °C 52.7 °F /  11.5 °C 30.30in /  1026hPa East 2mph /  3.2km/h 8mph /  12.9km/h 73% 0.00in /  0mm 25 W/m2
17:39 61.3 °F /  16.3 °C 52.7 °F /  11.5 °C 30.30in /  1026hPa ENE 4.8mph /  7.7km/h 9mph /  14.5km/h 73.2% 0.00in /  0mm 19 W/m2
17:44 61.2 °F /  16.2 °C 52.5 °F /  11.4 °C 30.29in /  1025.6hPa East 6.6mph /  10.6km/h 12mph /  19.3km/h 73% 0.00in /  0mm 16 W/m2
17:45 61 °F /  16.1 °C 52.3 °F /  11.3 °C 30.29in /  1025.6hPa ESE 8.9mph /  14.3km/h 9mph /  14.5km/h 73% 0.00in /  0mm 12 W/m2
17:54 60.7 °F /  15.9 °C 52.2 °F /  11.2 °C 30.29in /  1025.6hPa East 2.9mph /  4.7km/h 11mph /  17.7km/h 73.4% 0.00in /  0mm 11 W/m2
17:59 60.5 °F /  15.8 °C 52.3 °F /  11.3 °C 30.29in /  1025.6hPa ENE 4.4mph /  7.1km/h 11mph /  17.7km/h 74% 0.00in /  0mm 7 W/m2
18:04 60.4 °F /  15.8 °C 52.2 °F /  11.2 °C 30.29in /  1025.6hPa East 3.3mph /  5.3km/h 10mph /  16.1km/h 74% 0.00in /  0mm 5 W/m2
18:09 60.3 °F /  15.7 °C 52 °F /  11.1 °C 30.29in /  1025.6hPa NE 4.6mph /  7.4km/h 11mph /  17.7km/h 74% 0.00in /  0mm 0 W/m2
18:14 60.1 °F /  15.6 °C 51.8 °F /  11 °C 30.29in /  1025.6hPa East 2.9mph /  4.7km/h 10mph /  16.1km/h 74% 0.00in /  0mm 0 W/m2
18:19 59.9 °F /  15.5 °C 51.7 °F /  10.9 °C 30.29in /  1025.6hPa ENE 5.4mph /  8.7km/h 9mph /  14.5km/h 74.2% 0.00in /  0mm 0 W/m2
18:24 59.7 °F /  15.4 °C 51.8 °F /  11 °C 30.29in /  1025.6hPa ENE 4.8mph /  7.7km/h 9mph /  14.5km/h 75% 0.00in /  0mm 0 W/m2
18:29 59.5 °F /  15.3 °C 51.6 °F /  10.9 °C 30.29in /  1025.6hPa ENE 3.5mph /  5.6km/h 9mph /  14.5km/h 75% 0.00in /  0mm 0 W/m2
18:34 59.4 °F /  15.2 °C 51.4 °F /  10.8 °C 30.29in /  1025.6hPa ENE 3.3mph /  5.3km/h 9mph /  14.5km/h 75% 0.00in /  0mm 0 W/m2
18:39 59.3 °F /  15.2 °C 51.7 °F /  10.9 °C 30.29in /  1025.6hPa East 3.1mph /  5km/h 12mph /  19.3km/h 76% 0.00in /  0mm 0 W/m2
18:44 59.2 °F /  15.1 °C 51.6 °F /  10.9 °C 30.29in /  1025.6hPa East 3.3mph /  5.3km/h 10mph /  16.1km/h 76% 0.00in /  0mm 0 W/m2
18:49 59.2 °F /  15.1 °C 51.6 °F /  10.9 °C 30.30in /  1026hPa East 3.9mph /  6.3km/h 9mph /  14.5km/h 76% 0.00in /  0mm 0 W/m2
18:54 59 °F /  15 °C 51.4 °F /  10.8 °C 30.30in /  1026hPa ENE 3.1mph /  5km/h 14mph /  22.5km/h 76% 0.00in /  0mm 0 W/m2
18:59 59 °F /  15 °C 51.4 °F /  10.8 °C 30.30in /  1026hPa ENE 6.5mph /  10.5km/h 15mph /  24.1km/h 76% 0.00in /  0mm 0 W/m2
19:04 59 °F /  15 °C 51.4 °F /  10.8 °C 30.30in /  1026hPa NE 3.4mph /  5.5km/h 9mph /  14.5km/h 76% 0.00in /  0mm 0 W/m2
19:09 58.8 °F /  14.9 °C 51.3 °F /  10.7 °C 30.30in /  1026hPa ENE 2.8mph /  4.5km/h 9mph /  14.5km/h 76% 0.00in /  0mm 0 W/m2
19:14 58.8 °F /  14.9 °C 51.3 °F /  10.7 °C 30.30in /  1026hPa ENE 4.5mph /  7.2km/h 14mph /  22.5km/h 76% 0.00in /  0mm 0 W/m2
19:19 58.8 °F /  14.9 °C 51.3 °F /  10.7 °C 30.30in /  1026hPa ENE 3.5mph /  5.6km/h 13mph /  20.9km/h 76% 0.00in /  0mm 0 W/m2
19:24 58.7 °F /  14.8 °C 51.2 °F /  10.7 °C 30.30in /  1026hPa NE 3.3mph /  5.3km/h 11mph /  17.7km/h 76% 0.00in /  0mm 0 W/m2
19:29 58.6 °F /  14.8 °C 51.1 °F /  10.6 °C 30.31in /  1026.3hPa ENE 4.7mph /  7.6km/h 10mph /  16.1km/h 76% 0.00in /  0mm 0 W/m2
19:34 58.6 °F /  14.8 °C 51.1 °F /  10.6 °C 30.30in /  1026hPa East 3.3mph /  5.3km/h 11mph /  17.7km/h 76% 0.00in /  0mm 0 W/m2
19:39 58.6 °F /  14.8 °C 51.1 °F /  10.6 °C 30.30in /  1026hPa ENE 5mph /  8km/h 12mph /  19.3km/h 76% 0.00in /  0mm 0 W/m2
19:44 58.6 °F /  14.8 °C 51.1 °F /  10.6 °C 30.30in /  1026hPa East 4.7mph /  7.6km/h 14mph /  22.5km/h 76% 0.00in /  0mm 0 W/m2
19:49 58.6 °F /  14.8 °C 51.1 °F /  10.6 °C 30.30in /  1026hPa ENE 2.4mph /  3.9km/h 11mph /  17.7km/h 76% 0.00in /  0mm 0 W/m2
19:54 58.5 °F /  14.7 °C 50.9 °F /  10.5 °C 30.30in /  1026hPa ENE 3.9mph /  6.3km/h 14mph /  22.5km/h 76% 0.00in /  0mm 0 W/m2
19:59 58.5 °F /  14.7 °C 50.9 °F /  10.5 °C 30.29in /  1025.6hPa ENE 7mph /  11.3km/h 15mph /  24.1km/h 76% 0.00in /  0mm 0 W/m2
20:04 58.5 °F /  14.7 °C 50.9 °F /  10.5 °C 30.29in /  1025.6hPa East 4.8mph /  7.7km/h 13mph /  20.9km/h 76% 0.00in /  0mm 0 W/m2
20:09 58.4 °F /  14.7 °C 50.8 °F /  10.4 °C 30.29in /  1025.6hPa ENE 4.9mph /  7.9km/h 11mph /  17.7km/h 76% 0.00in /  0mm 0 W/m2
20:14 58.3 °F /  14.6 °C 51 °F /  10.6 °C 30.29in /  1025.6hPa East 2.8mph /  4.5km/h 14mph /  22.5km/h 76.8% 0.00in /  0mm 0 W/m2
20:19 58.1 °F /  14.5 °C 50.8 °F /  10.4 °C 30.29in /  1025.6hPa East 6.4mph /  10.3km/h 12mph /  19.3km/h 76.8% 0.00in /  0mm 0 W/m2
20:24 57.9 °F /  14.4 °C 50.7 °F /  10.4 °C 30.29in /  1025.6hPa East 4.2mph /  6.8km/h 11mph /  17.7km/h 77% 0.00in /  0mm 0 W/m2
20:29 57.9 °F /  14.4 °C 50.7 °F /  10.4 °C 30.29in /  1025.6hPa ENE 8.4mph /  13.5km/h 14mph /  22.5km/h 77% 0.00in /  0mm 0 W/m2
20:34 57.8 °F /  14.3 °C 50.6 °F /  10.3 °C 30.29in /  1025.6hPa East 4.1mph /  6.6km/h 11mph /  17.7km/h 77% 0.00in /  0mm 0 W/m2
20:39 57.7 °F /  14.3 °C 50.5 °F /  10.3 °C 30.28in /  1025.3hPa ENE 6.7mph /  10.8km/h 11mph /  17.7km/h 77% 0.00in /  0mm 0 W/m2
20:44 57.7 °F /  14.3 °C 50.5 °F /  10.3 °C 30.28in /  1025.3hPa ENE 8mph /  12.9km/h 14mph /  22.5km/h 77% 0.00in /  0mm 0 W/m2
20:49 57.6 °F /  14.2 °C 50.4 °F /  10.2 °C 30.28in /  1025.3hPa ENE 7.8mph /  12.6km/h 14mph /  22.5km/h 77% 0.00in /  0mm 0 W/m2
20:54 57.6 °F /  14.2 °C 50.4 °F /  10.2 °C 30.28in /  1025.3hPa ENE 3.8mph /  6.1km/h 10mph /  16.1km/h 77% 0.00in /  0mm 0 W/m2
20:59 57.5 °F /  14.2 °C 50.4 °F /  10.2 °C 30.28in /  1025.3hPa East 6.7mph /  10.8km/h 13mph /  20.9km/h 77.2% 0.00in /  0mm 0 W/m2
21:04 57.4 °F /  14.1 °C 50.3 °F /  10.2 °C 30.28in /  1025.3hPa ESE 2.8mph /  4.5km/h 13mph /  20.9km/h 77.4% 0.00in /  0mm 0 W/m2
21:09 57.4 °F /  14.1 °C 50.3 °F /  10.2 °C 30.28in /  1025.3hPa ESE 7mph /  11.3km/h 13mph /  20.9km/h 77.4% 0.00in /  0mm 0 W/m2
21:14 57.4 °F /  14.1 °C 50.5 °F /  10.3 °C 30.28in /  1025.3hPa East 5.8mph /  9.3km/h 15mph /  24.1km/h 78% 0.00in /  0mm 0 W/m2
21:19 57.5 °F /  14.2 °C 50.6 °F /  10.3 °C 30.28in /  1025.3hPa ENE 6.3mph /  10.1km/h 13mph /  20.9km/h 78% 0.00in /  0mm 0 W/m2
21:24 57.6 °F /  14.2 °C 50.7 °F /  10.4 °C 30.28in /  1025.3hPa East 4.6mph /  7.4km/h 12mph /  19.3km/h 78% 0.00in /  0mm 0 W/m2
21:29 57.6 °F /  14.2 °C 50.7 °F /  10.4 °C 30.28in /  1025.3hPa East 3.7mph /  6km/h 12mph /  19.3km/h 78% 0.00in /  0mm 0 W/m2
21:34 57.4 °F /  14.1 °C 50.5 °F /  10.3 °C 30.28in /  1025.3hPa ESE 5.2mph /  8.4km/h 12mph /  19.3km/h 78% 0.00in /  0mm 0 W/m2
21:39 57.6 °F /  14.2 °C 50.7 °F /  10.4 °C 30.28in /  1025.3hPa East 5.9mph /  9.5km/h 14mph /  22.5km/h 78% 0.00in /  0mm 0 W/m2
21:44 57.6 °F /  14.2 °C 50.7 °F /  10.4 °C 30.28in /  1025.3hPa East 8.6mph /  13.8km/h 15mph /  24.1km/h 78% 0.00in /  0mm 0 W/m2
21:49 57.6 °F /  14.2 °C 50.8 °F /  10.4 °C 30.28in /  1025.3hPa ESE 4.3mph /  6.9km/h 11mph /  17.7km/h 78% 0.00in /  0mm 0 W/m2
21:54 57.6 °F /  14.2 °C 50.7 °F /  10.4 °C 30.28in /  1025.3hPa East 6.4mph /  10.3km/h 13mph /  20.9km/h 78% 0.00in /  0mm 0 W/m2
21:59 57.6 °F /  14.2 °C 50.7 °F /  10.4 °C 30.28in /  1025.3hPa East 6.6mph /  10.6km/h 13mph /  20.9km/h 78% 0.00in /  0mm 0 W/m2
22:04 57.6 °F /  14.2 °C 50.7 °F /  10.4 °C 30.28in /  1025.3hPa East 7mph /  11.3km/h 17mph /  27.4km/h 78% 0.00in /  0mm 0 W/m2
22:09 57.6 °F /  14.2 °C 50.7 °F /  10.4 °C 30.28in /  1025.3hPa East 3.1mph /  5km/h 11mph /  17.7km/h 78% 0.00in /  0mm 0 W/m2
22:14 57.4 °F /  14.1 °C 50.5 °F /  10.3 °C 30.28in /  1025.3hPa East 4.6mph /  7.4km/h 16mph /  25.7km/h 78% 0.00in /  0mm 0 W/m2
22:19 57.4 °F /  14.1 °C 50.5 °F /  10.3 °C 30.28in /  1025.3hPa East 5.2mph /  8.4km/h 16mph /  25.7km/h 78% 0.00in /  0mm 0 W/m2
22:24 57.4 °F /  14.1 °C 50.8 °F /  10.4 °C 30.28in /  1025.3hPa ESE 4.8mph /  7.7km/h 12mph /  19.3km/h 78.8% 0.00in /  0mm 0 W/m2
22:29 57.3 °F /  14.1 °C 50.8 °F /  10.4 °C 30.28in /  1025.3hPa East 5.1mph /  8.2km/h 14mph /  22.5km/h 79% 0.00in /  0mm 0 W/m2
22:34 57.2 °F /  14 °C 50.7 °F /  10.4 °C 30.28in /  1025.3hPa ESE 5.8mph /  9.3km/h 11mph /  17.7km/h 79% 0.00in /  0mm 0 W/m2
22:39 57.2 °F /  14 °C 50.7 °F /  10.4 °C 30.28in /  1025.3hPa East 4.9mph /  7.9km/h 13mph /  20.9km/h 79% 0.00in /  0mm 0 W/m2
22:44 57.2 °F /  14 °C 50.9 °F /  10.5 °C 30.28in /  1025.3hPa East 3mph /  4.8km/h 11mph /  17.7km/h 79.4% 0.00in /  0mm 0 W/m2
22:49 57.2 °F /  14 °C 51.1 °F /  10.6 °C 30.28in /  1025.3hPa East 5.5mph /  8.9km/h 14mph /  22.5km/h 80% 0.00in /  0mm 0 W/m2
22:54 57.2 °F /  14 °C 50.7 °F /  10.4 °C 30.28in /  1025.3hPa ESE 6.8mph /  10.9km/h 13mph /  20.9km/h 79% 0.00in /  0mm 0 W/m2
22:59 57.1 °F /  13.9 °C 50.6 °F /  10.3 °C 30.28in /  1025.3hPa ESE 3.1mph /  5km/h 13mph /  20.9km/h 79% 0.00in /  0mm 0 W/m2
23:04 57 °F /  13.9 °C 50.5 °F /  10.3 °C 30.28in /  1025.3hPa East 4.7mph /  7.6km/h 19mph /  30.6km/h 79% 0.00in /  0mm 0 W/m2
23:09 57 °F /  13.9 °C 50.5 °F /  10.3 °C 30.28in /  1025.3hPa East 5.1mph /  8.2km/h 13mph /  20.9km/h 79% 0.00in /  0mm 0 W/m2
23:14 57 °F /  13.9 °C 50.5 °F /  10.3 °C 30.28in /  1025.3hPa East 5.2mph /  8.4km/h 13mph /  20.9km/h 79% 0.00in /  0mm 0 W/m2
23:19 56.9 °F /  13.8 °C 50.3 °F /  10.2 °C 30.27in /  1024.9hPa ENE 4.3mph /  6.9km/h 14mph /  22.5km/h 78.4% 0.00in /  0mm 0 W/m2
23:24 56.8 °F /  13.8 °C 50 °F /  10 °C 30.27in /  1024.9hPa ESE 4.4mph /  7.1km/h 12mph /  19.3km/h 78% 0.00in /  0mm 0 W/m2
23:29 56.8 °F /  13.8 °C 50 °F /  10 °C 30.27in /  1024.9hPa East 5.9mph /  9.5km/h 14mph /  22.5km/h 78% 0.00in /  0mm 0 W/m2
23:34 56.8 °F /  13.8 °C 49.8 °F /  9.9 °C 30.27in /  1024.9hPa ESE 5.3mph /  8.5km/h 11mph /  17.7km/h 77.4% 0.00in /  0mm 0 W/m2
23:39 56.8 °F /  13.8 °C 49.6 °F /  9.8 °C 30.27in /  1024.9hPa ENE 5.3mph /  8.5km/h 11mph /  17.7km/h 77% 0.00in /  0mm 0 W/m2
23:44 56.8 °F /  13.8 °C 49.6 °F /  9.8 °C 30.27in /  1024.9hPa East 7.4mph /  11.9km/h 12mph /  19.3km/h 77% 0.00in /  0mm 0 W/m2
23:49 56.8 °F /  13.8 °C 49.6 °F /  9.8 °C 30.27in /  1024.9hPa ESE 7.4mph /  11.9km/h 17mph /  27.4km/h 77.2% 0.00in /  0mm 0 W/m2
23:54 56.7 °F /  13.7 °C 49.8 °F /  9.9 °C 30.26in /  1024.6hPa ESE 6.2mph /  10km/h 19mph /  30.6km/h 78% 0.00in /  0mm 0 W/m2
23:59 56.7 °F /  13.7 °C 49.8 °F /  9.9 °C 30.25in /  1024.3hPa ESE 5.5mph /  8.9km/h 16mph /  25.7km/h 78% 0.00in /  0mm 0 W/m2
Bath Spa Weather
Compliments of Weather Underground - 2 mb